sensor_id;sensor_type;location;lat;lon;timestamp;pressure;altitude;pressure_sealevel;temperature;humidity
74895;BME280;63447;49.446;8.666;2023-03-01T00:01:08;101434.81;;;1.63;55.52
74895;BME280;63447;49.446;8.666;2023-03-01T00:03:36;101420.06;;;1.59;55.38
74895;BME280;63447;49.446;8.666;2023-03-01T00:06:05;101421.88;;;1.53;55.36
74895;BME280;63447;49.446;8.666;2023-03-01T00:08:35;101415.09;;;1.39;56.18
74895;BME280;63447;49.446;8.666;2023-03-01T00:11:12;101404.75;;;1.53;55.24
74895;BME280;63447;49.446;8.666;2023-03-01T00:13:38;101415.13;;;1.56;55.23
74895;BME280;63447;49.446;8.666;2023-03-01T00:16:05;101407.13;;;1.49;55.75
74895;BME280;63447;49.446;8.666;2023-03-01T00:18:36;101402.19;;;1.46;55.16
74895;BME280;63447;49.446;8.666;2023-03-01T00:21:04;101417.84;;;1.56;55.71
74895;BME280;63447;49.446;8.666;2023-03-01T00:23:30;101421.38;;;1.56;55.40
74895;BME280;63447;49.446;8.666;2023-03-01T00:25:58;101416.84;;;1.62;55.93
74895;BME280;63447;49.446;8.666;2023-03-01T00:28:23;101424.84;;;1.52;56.00
74895;BME280;63447;49.446;8.666;2023-03-01T00:30:53;101404.94;;;1.34;55.82
74895;BME280;63447;49.446;8.666;2023-03-01T00:33:21;101420.94;;;1.31;56.28
74895;BME280;63447;49.446;8.666;2023-03-01T00:35:48;101425.88;;;1.34;56.79
74895;BME280;63447;49.446;8.666;2023-03-01T00:38:18;101422.03;;;1.30;56.11
74895;BME280;63447;49.446;8.666;2023-03-01T00:40:43;101424.16;;;1.28;56.82
74895;BME280;63447;49.446;8.666;2023-03-01T00:43:11;101429.16;;;1.19;57.23
74895;BME280;63447;49.446;8.666;2023-03-01T00:45:36;101404.84;;;1.13;56.49
74895;BME280;63447;49.446;8.666;2023-03-01T00:48:02;101416.41;;;1.20;56.97
74895;BME280;63447;49.446;8.666;2023-03-01T00:50:31;101415.72;;;1.13;57.67
74895;BME280;63447;49.446;8.666;2023-03-01T00:53:01;101427.16;;;1.15;56.92
74895;BME280;63447;49.446;8.666;2023-03-01T00:55:26;101419.16;;;1.08;58.01
74895;BME280;63447;49.446;8.666;2023-03-01T00:57:52;101406.13;;;0.93;57.63
74895;BME280;63447;49.446;8.666;2023-03-01T01:00:18;101398.72;;;1.06;58.69
74895;BME280;63447;49.446;8.666;2023-03-01T01:02:44;101392.81;;;1.09;58.28
74895;BME280;63447;49.446;8.666;2023-03-01T01:05:10;101388.78;;;1.11;58.18
74895;BME280;63447;49.446;8.666;2023-03-01T01:07:38;101365.22;;;1.00;57.97
74895;BME280;63447;49.446;8.666;2023-03-01T01:10:06;101380.69;;;0.99;57.83
74895;BME280;63447;49.446;8.666;2023-03-01T01:12:32;101375.34;;;1.05;58.17
74895;BME280;63447;49.446;8.666;2023-03-01T01:14:58;101372.56;;;1.16;57.25
74895;BME280;63447;49.446;8.666;2023-03-01T01:17:26;101365.97;;;1.12;57.80
74895;BME280;63447;49.446;8.666;2023-03-01T01:19:51;101371.97;;;1.14;57.92
74895;BME280;63447;49.446;8.666;2023-03-01T01:22:16;101362.91;;;1.09;57.85
74895;BME280;63447;49.446;8.666;2023-03-01T01:24:42;101370.44;;;1.18;58.24
74895;BME280;63447;49.446;8.666;2023-03-01T01:27:09;101353.44;;;1.11;58.06
74895;BME280;63447;49.446;8.666;2023-03-01T01:29:35;101358.72;;;1.34;56.73
74895;BME280;63447;49.446;8.666;2023-03-01T01:32:00;101369.28;;;1.31;57.10
74895;BME280;63447;49.446;8.666;2023-03-01T01:34:28;101356.34;;;1.38;56.91
74895;BME280;63447;49.446;8.666;2023-03-01T01:36:56;101359.16;;;1.26;57.33
74895;BME280;63447;49.446;8.666;2023-03-01T01:39:24;101362.13;;;1.25;56.48
74895;BME280;63447;49.446;8.666;2023-03-01T01:41:49;101359.31;;;1.20;57.08
74895;BME280;63447;49.446;8.666;2023-03-01T01:44:23;101364.66;;;1.15;56.45
74895;BME280;63447;49.446;8.666;2023-03-01T01:47:06;101343.81;;;1.20;56.35
74895;BME280;63447;49.446;8.666;2023-03-01T01:54:54;101352.13;;;1.14;57.51
74895;BME280;63447;49.446;8.666;2023-03-01T01:57:32;101350.19;;;1.26;56.45
74895;BME280;63447;49.446;8.666;2023-03-01T02:00:09;101348.00;;;1.11;56.90
74895;BME280;63447;49.446;8.666;2023-03-01T02:02:36;101338.78;;;1.12;56.85
74895;BME280;63447;49.446;8.666;2023-03-01T02:05:18;101340.13;;;1.26;57.08
74895;BME280;63447;49.446;8.666;2023-03-01T02:07:48;101328.84;;;1.18;56.40
74895;BME280;63447;49.446;8.666;2023-03-01T02:10:14;101326.03;;;1.13;57.66
74895;BME280;63447;49.446;8.666;2023-03-01T02:12:40;101325.94;;;1.08;58.00
74895;BME280;63447;49.446;8.666;2023-03-01T02:15:05;101324.13;;;1.13;57.87
74895;BME280;63447;49.446;8.666;2023-03-01T02:17:31;101296.53;;;0.88;58.15
74895;BME280;63447;49.446;8.666;2023-03-01T02:20:13;101296.75;;;0.70;59.03
74895;BME280;63447;49.446;8.666;2023-03-01T02:22:43;101310.66;;;0.73;58.74
74895;BME280;63447;49.446;8.666;2023-03-01T02:30:33;101295.19;;;0.74;59.20
74895;BME280;63447;49.446;8.666;2023-03-01T02:33:03;101297.56;;;0.70;59.22
74895;BME280;63447;49.446;8.666;2023-03-01T02:35:35;101307.84;;;0.68;58.55
74895;BME280;63447;49.446;8.666;2023-03-01T02:38:03;101294.75;;;0.65;59.04
74895;BME280;63447;49.446;8.666;2023-03-01T02:40:33;101284.22;;;0.68;58.80
74895;BME280;63447;49.446;8.666;2023-03-01T02:43:02;101289.19;;;0.72;58.73
74895;BME280;63447;49.446;8.666;2023-03-01T02:45:33;101284.56;;;0.72;59.54
74895;BME280;63447;49.446;8.666;2023-03-01T02:47:58;101264.66;;;0.66;59.84
74895;BME280;63447;49.446;8.666;2023-03-01T02:53:11;101268.84;;;0.74;59.40
74895;BME280;63447;49.446;8.666;2023-03-01T02:55:40;101275.75;;;0.65;59.15
74895;BME280;63447;49.446;8.666;2023-03-01T02:58:06;101268.91;;;0.62;59.99
74895;BME280;63447;49.446;8.666;2023-03-01T03:00:36;101273.63;;;0.67;59.10
74895;BME280;63447;49.446;8.666;2023-03-01T03:03:05;101268.09;;;0.62;59.76
74895;BME280;63447;49.446;8.666;2023-03-01T03:05:32;101259.69;;;0.63;59.87
74895;BME280;63447;49.446;8.666;2023-03-01T03:08:01;101258.88;;;0.63;59.81
74895;BME280;63447;49.446;8.666;2023-03-01T03:10:31;101248.09;;;0.68;59.75
74895;BME280;63447;49.446;8.666;2023-03-01T03:12:59;101226.44;;;0.56;60.27
74895;BME280;63447;49.446;8.666;2023-03-01T03:15:28;101248.09;;;0.68;59.13
74895;BME280;63447;49.446;8.666;2023-03-01T03:17:54;101248.69;;;0.70;59.50
74895;BME280;63447;49.446;8.666;2023-03-01T03:20:22;101227.09;;;0.47;59.25
74895;BME280;63447;49.446;8.666;2023-03-01T03:22:50;101244.72;;;0.61;59.54
74895;BME280;63447;49.446;8.666;2023-03-01T03:25:19;101249.06;;;0.62;59.33
74895;BME280;63447;49.446;8.666;2023-03-01T03:27:47;101237.38;;;0.61;59.75
74895;BME280;63447;49.446;8.666;2023-03-01T03:30:16;101243.16;;;0.65;59.37
74895;BME280;63447;49.446;8.666;2023-03-01T03:32:43;101223.13;;;0.54;59.40
74895;BME280;63447;49.446;8.666;2023-03-01T03:35:22;101232.88;;;0.67;58.90
74895;BME280;63447;49.446;8.666;2023-03-01T03:37:51;101238.13;;;0.57;59.57
74895;BME280;63447;49.446;8.666;2023-03-01T03:40:30;101241.41;;;0.59;59.92
74895;BME280;63447;49.446;8.666;2023-03-01T03:42:56;101228.25;;;0.51;59.59
74895;BME280;63447;49.446;8.666;2023-03-01T03:45:25;101254.75;;;0.60;60.14
74895;BME280;63447;49.446;8.666;2023-03-01T03:47:50;101244.94;;;0.59;59.61
74895;BME280;63447;49.446;8.666;2023-03-01T03:50:18;101222.28;;;0.37;59.33
74895;BME280;63447;49.446;8.666;2023-03-01T03:52:44;101214.63;;;0.34;60.21
74895;BME280;63447;49.446;8.666;2023-03-01T03:55:11;101225.38;;;0.57;59.30
74895;BME280;63447;49.446;8.666;2023-03-01T03:57:38;101232.28;;;0.65;59.06
74895;BME280;63447;49.446;8.666;2023-03-01T04:00:11;101229.75;;;0.75;58.83
74895;BME280;63447;49.446;8.666;2023-03-01T04:02:43;101203.25;;;0.49;59.07
74895;BME280;63447;49.446;8.666;2023-03-01T04:05:12;101229.81;;;0.63;59.42
74895;BME280;63447;49.446;8.666;2023-03-01T04:07:39;101212.28;;;0.54;60.03
74895;BME280;63447;49.446;8.666;2023-03-01T04:10:05;101229.16;;;0.56;59.94
74895;BME280;63447;49.446;8.666;2023-03-01T04:12:34;101199.22;;;0.51;59.74
74895;BME280;63447;49.446;8.666;2023-03-01T04:15:01;101225.88;;;0.71;58.99
74895;BME280;63447;49.446;8.666;2023-03-01T04:17:28;101226.47;;;0.73;58.67
74895;BME280;63447;49.446;8.666;2023-03-01T04:19:56;101238.88;;;0.86;58.80
74895;BME280;63447;49.446;8.666;2023-03-01T04:22:21;101235.84;;;0.82;58.49
74895;BME280;63447;49.446;8.666;2023-03-01T04:24:49;101228.13;;;0.91;58.14
74895;BME280;63447;49.446;8.666;2023-03-01T04:27:14;101218.06;;;0.75;58.79
74895;BME280;63447;49.446;8.666;2023-03-01T04:29:43;101246.31;;;0.90;57.93
74895;BME280;63447;49.446;8.666;2023-03-01T04:32:08;101242.44;;;0.86;58.33
74895;BME280;63447;49.446;8.666;2023-03-01T04:34:33;101260.88;;;0.84;58.37
74895;BME280;63447;49.446;8.666;2023-03-01T04:36:59;101244.16;;;0.76;59.17
74895;BME280;63447;49.446;8.666;2023-03-01T04:39:24;101248.53;;;0.77;59.64
74895;BME280;63447;49.446;8.666;2023-03-01T04:41:49;101235.00;;;0.65;59.26
74895;BME280;63447;49.446;8.666;2023-03-01T04:44:15;101257.22;;;0.62;59.60
74895;BME280;63447;49.446;8.666;2023-03-01T04:46:40;101223.34;;;0.36;60.01
74895;BME280;63447;49.446;8.666;2023-03-01T04:49:05;101257.66;;;0.71;59.02
74895;BME280;63447;49.446;8.666;2023-03-01T04:51:31;101249.59;;;0.76;58.83
74895;BME280;63447;49.446;8.666;2023-03-01T04:54:02;101262.03;;;0.72;59.02
74895;BME280;63447;49.446;8.666;2023-03-01T04:56:28;101237.88;;;0.58;59.41
74895;BME280;63447;49.446;8.666;2023-03-01T04:58:53;101240.66;;;0.47;59.35
74895;BME280;63447;49.446;8.666;2023-03-01T05:01:22;101253.59;;;0.56;59.17
74895;BME280;63447;49.446;8.666;2023-03-01T05:03:50;101240.25;;;0.55;58.86
74895;BME280;63447;49.446;8.666;2023-03-01T05:06:16;101254.03;;;0.65;59.01
74895;BME280;63447;49.446;8.666;2023-03-01T05:08:41;101246.69;;;0.65;59.84
74895;BME280;63447;49.446;8.666;2023-03-01T05:11:07;101247.53;;;0.66;59.13
74895;BME280;63447;49.446;8.666;2023-03-01T05:13:37;101247.28;;;0.67;59.42
74895;BME280;63447;49.446;8.666;2023-03-01T05:16:04;101242.09;;;0.66;59.89
74895;BME280;63447;49.446;8.666;2023-03-01T05:18:32;101245.88;;;0.65;59.81
74895;BME280;63447;49.446;8.666;2023-03-01T05:21:05;101242.09;;;0.66;58.91
74895;BME280;63447;49.446;8.666;2023-03-01T05:23:32;101221.75;;;0.52;59.58
74895;BME280;63447;49.446;8.666;2023-03-01T05:25:58;101248.34;;;0.66;59.16
74895;BME280;63447;49.446;8.666;2023-03-01T05:28:25;101148.91;;;-0.13;59.20
74895;BME280;63447;49.446;8.666;2023-03-01T05:30:53;101218.66;;;0.31;59.94
74895;BME280;63447;49.446;8.666;2023-03-01T05:33:18;101216.28;;;0.35;59.69
74895;BME280;63447;49.446;8.666;2023-03-01T05:35:45;101256.72;;;0.48;60.15
74895;BME280;63447;49.446;8.666;2023-03-01T05:38:12;101254.41;;;0.57;59.61
74895;BME280;63447;49.446;8.666;2023-03-01T05:40:39;101259.25;;;0.55;58.91
74895;BME280;63447;49.446;8.666;2023-03-01T05:43:05;101220.06;;;0.34;60.23
74895;BME280;63447;49.446;8.666;2023-03-01T05:45:31;101239.13;;;0.51;59.81
74895;BME280;63447;49.446;8.666;2023-03-01T05:47:57;101250.22;;;0.49;59.97
74895;BME280;63447;49.446;8.666;2023-03-01T05:50:28;101221.72;;;0.35;60.14
74895;BME280;63447;49.446;8.666;2023-03-01T05:53:11;101244.34;;;0.41;60.39
74895;BME280;63447;49.446;8.666;2023-03-01T05:55:37;101243.38;;;0.47;60.18
74895;BME280;63447;49.446;8.666;2023-03-01T05:58:06;101242.91;;;0.50;59.74
74895;BME280;63447;49.446;8.666;2023-03-01T06:00:32;101254.06;;;0.53;59.66
74895;BME280;63447;49.446;8.666;2023-03-01T06:03:01;101247.16;;;0.46;59.48
74895;BME280;63447;49.446;8.666;2023-03-01T06:05:28;101238.78;;;0.47;59.88
74895;BME280;63447;49.446;8.666;2023-03-01T06:07:56;101241.41;;;0.42;59.21
74895;BME280;63447;49.446;8.666;2023-03-01T06:10:23;101235.88;;;0.37;60.29
74895;BME280;63447;49.446;8.666;2023-03-01T06:12:48;101221.94;;;0.33;59.92
74895;BME280;63447;49.446;8.666;2023-03-01T06:15:15;101237.28;;;0.40;59.49
74895;BME280;63447;49.446;8.666;2023-03-01T06:17:45;101228.53;;;0.38;59.54
74895;BME280;63447;49.446;8.666;2023-03-01T06:20:12;101244.69;;;0.44;60.08
74895;BME280;63447;49.446;8.666;2023-03-01T06:22:38;101248.97;;;0.40;59.23
74895;BME280;63447;49.446;8.666;2023-03-01T06:25:05;101244.72;;;0.32;59.99
74895;BME280;63447;49.446;8.666;2023-03-01T06:27:32;101182.75;;;-0.16;60.39
74895;BME280;63447;49.446;8.666;2023-03-01T06:29:58;101258.16;;;0.39;59.80
74895;BME280;63447;49.446;8.666;2023-03-01T06:32:23;101231.25;;;0.38;59.76
74895;BME280;63447;49.446;8.666;2023-03-01T06:34:49;101246.47;;;0.67;59.48
74895;BME280;63447;49.446;8.666;2023-03-01T06:37:14;101250.72;;;0.63;59.36
74895;BME280;63447;49.446;8.666;2023-03-01T06:39:42;101249.00;;;1.07;65.49
74895;BME280;63447;49.446;8.666;2023-03-01T06:42:08;101215.25;;;1.20;67.45
74895;BME280;63447;49.446;8.666;2023-03-01T06:44:37;101207.47;;;1.45;68.76
74895;BME280;63447;49.446;8.666;2023-03-01T06:47:03;101224.81;;;2.04;60.06
74895;BME280;63447;49.446;8.666;2023-03-01T06:49:28;101232.59;;;1.96;57.38
74895;BME280;63447;49.446;8.666;2023-03-01T06:51:54;101237.81;;;2.24;59.54
74895;BME280;63447;49.446;8.666;2023-03-01T06:54:19;101243.38;;;2.08;55.33
74895;BME280;63447;49.446;8.666;2023-03-01T06:56:47;101244.38;;;2.01;56.21
74895;BME280;63447;49.446;8.666;2023-03-01T06:59:13;101224.53;;;1.84;56.45
74895;BME280;63447;49.446;8.666;2023-03-01T07:01:38;101237.91;;;1.86;56.65
74895;BME280;63447;49.446;8.666;2023-03-01T07:04:06;101240.50;;;1.97;59.00
74895;BME280;63447;49.446;8.666;2023-03-01T07:06:32;101230.19;;;1.78;56.21
74895;BME280;63447;49.446;8.666;2023-03-01T07:08:57;101236.38;;;1.73;55.81
74895;BME280;63447;49.446;8.666;2023-03-01T07:11:24;101240.84;;;1.79;55.71
74895;BME280;63447;49.446;8.666;2023-03-01T07:13:51;101236.13;;;1.75;56.14
74895;BME280;63447;49.446;8.666;2023-03-01T07:16:19;101228.59;;;1.60;55.25
74895;BME280;63447;49.446;8.666;2023-03-01T07:18:46;101232.63;;;1.57;56.34
74895;BME280;63447;49.446;8.666;2023-03-01T07:21:12;101229.91;;;1.57;56.83
74895;BME280;63447;49.446;8.666;2023-03-01T07:23:37;101222.66;;;1.63;54.58
74895;BME280;63447;49.446;8.666;2023-03-01T07:26:02;101205.00;;;1.65;55.92
74895;BME280;63447;49.446;8.666;2023-03-01T07:28:28;101206.28;;;1.80;55.08
74895;BME280;63447;49.446;8.666;2023-03-01T07:30:54;101217.28;;;1.90;54.99
74895;BME280;63447;49.446;8.666;2023-03-01T07:33:20;101197.09;;;1.86;55.10
74895;BME280;63447;49.446;8.666;2023-03-01T07:35:45;101202.50;;;1.81;54.65
74895;BME280;63447;49.446;8.666;2023-03-01T07:38:16;101215.25;;;2.02;53.62
74895;BME280;63447;49.446;8.666;2023-03-01T07:40:41;101209.78;;;2.24;53.88
74895;BME280;63447;49.446;8.666;2023-03-01T07:43:06;101207.44;;;2.11;54.11
74895;BME280;63447;49.446;8.666;2023-03-01T07:45:32;101209.16;;;2.17;54.32
74895;BME280;63447;49.446;8.666;2023-03-01T07:47:59;101212.63;;;2.12;53.30
74895;BME280;63447;49.446;8.666;2023-03-01T07:50:25;101204.00;;;2.20;53.60
74895;BME280;63447;49.446;8.666;2023-03-01T07:52:50;101204.59;;;2.49;53.17
74895;BME280;63447;49.446;8.666;2023-03-01T07:55:16;101192.97;;;2.59;52.59
74895;BME280;63447;49.446;8.666;2023-03-01T07:57:45;101187.03;;;2.67;52.15
74895;BME280;63447;49.446;8.666;2023-03-01T08:00:15;101180.72;;;2.61;52.51
74895;BME280;63447;49.446;8.666;2023-03-01T08:02:40;101176.34;;;2.60;51.77
74895;BME280;63447;49.446;8.666;2023-03-01T08:05:09;101182.84;;;2.91;50.70
74895;BME280;63447;49.446;8.666;2023-03-01T08:07:35;101168.53;;;3.06;51.61
74895;BME280;63447;49.446;8.666;2023-03-01T08:10:02;101192.72;;;2.97;51.07
74895;BME280;63447;49.446;8.666;2023-03-01T08:12:28;101162.31;;;3.16;50.75
74895;BME280;63447;49.446;8.666;2023-03-01T08:14:58;101198.59;;;3.63;49.65
74895;BME280;63447;49.446;8.666;2023-03-01T08:17:23;101199.13;;;3.65;50.05
74895;BME280;63447;49.446;8.666;2023-03-01T08:19:49;101184.97;;;3.73;49.57
74895;BME280;63447;49.446;8.666;2023-03-01T08:22:16;101201.47;;;3.99;48.84
74895;BME280;63447;49.446;8.666;2023-03-01T08:24:44;101196.06;;;4.24;47.93
74895;BME280;63447;49.446;8.666;2023-03-01T08:27:10;101188.69;;;4.15;47.63
74895;BME280;63447;49.446;8.666;2023-03-01T08:29:37;101132.66;;;4.02;47.72
74895;BME280;63447;49.446;8.666;2023-03-01T08:32:02;101189.84;;;4.59;47.12
74895;BME280;63447;49.446;8.666;2023-03-01T08:34:27;101183.56;;;4.54;46.88
74895;BME280;63447;49.446;8.666;2023-03-01T08:36:55;101169.88;;;4.74;46.61
74895;BME280;63447;49.446;8.666;2023-03-01T08:39:20;101172.34;;;4.70;47.14
74895;BME280;63447;49.446;8.666;2023-03-01T08:41:46;101171.00;;;4.93;45.66
74895;BME280;63447;49.446;8.666;2023-03-01T08:44:13;101164.97;;;4.86;45.68
74895;BME280;63447;49.446;8.666;2023-03-01T08:46:40;101171.22;;;5.17;46.54
74895;BME280;63447;49.446;8.666;2023-03-01T08:49:08;101172.06;;;5.18;46.07
74895;BME280;63447;49.446;8.666;2023-03-01T08:51:34;101148.19;;;5.43;44.89
74895;BME280;63447;49.446;8.666;2023-03-01T08:54:06;101151.69;;;5.54;44.04
74895;BME280;63447;49.446;8.666;2023-03-01T08:56:32;101153.50;;;5.89;43.99
74895;BME280;63447;49.446;8.666;2023-03-01T08:59:00;101146.91;;;5.95;44.73
74895;BME280;63447;49.446;8.666;2023-03-01T09:01:28;101150.28;;;5.67;43.47
74895;BME280;63447;49.446;8.666;2023-03-01T09:03:54;101150.47;;;5.80;43.54
74895;BME280;63447;49.446;8.666;2023-03-01T09:06:19;101131.19;;;6.11;43.95
74895;BME280;63447;49.446;8.666;2023-03-01T09:08:48;101143.56;;;6.42;43.16
74895;BME280;63447;49.446;8.666;2023-03-01T09:11:17;101145.53;;;6.71;42.19
74895;BME280;63447;49.446;8.666;2023-03-01T09:13:43;101132.22;;;6.20;42.76
74895;BME280;63447;49.446;8.666;2023-03-01T09:16:10;101146.41;;;6.27;42.98
74895;BME280;63447;49.446;8.666;2023-03-01T09:18:36;101144.25;;;6.58;43.07
74895;BME280;63447;49.446;8.666;2023-03-01T09:21:05;101139.38;;;6.16;42.17
74895;BME280;63447;49.446;8.666;2023-03-01T09:23:33;101117.59;;;6.69;42.67
74895;BME280;63447;49.446;8.666;2023-03-01T09:26:02;101142.22;;;7.03;42.04
74895;BME280;63447;49.446;8.666;2023-03-01T09:28:30;101140.56;;;7.02;41.42
74895;BME280;63447;49.446;8.666;2023-03-01T09:30:59;101130.34;;;7.36;41.02
74895;BME280;63447;49.446;8.666;2023-03-01T09:33:25;101137.22;;;7.10;40.16
74895;BME280;63447;49.446;8.666;2023-03-01T09:35:59;101118.19;;;6.61;40.98
74895;BME280;63447;49.446;8.666;2023-03-01T09:38:24;101124.50;;;7.43;40.85
74895;BME280;63447;49.446;8.666;2023-03-01T09:40:50;101106.69;;;5.11;43.69
74895;BME280;63447;49.446;8.666;2023-03-01T09:43:21;101131.34;;;6.25;42.91
74895;BME280;63447;49.446;8.666;2023-03-01T09:45:53;101132.16;;;6.25;41.67
74895;BME280;63447;49.446;8.666;2023-03-01T09:48:23;101113.50;;;6.27;42.15
74895;BME280;63447;49.446;8.666;2023-03-01T09:50:49;101121.22;;;7.17;40.34
74895;BME280;63447;49.446;8.666;2023-03-01T09:53:18;101123.31;;;7.01;41.20
74895;BME280;63447;49.446;8.666;2023-03-01T09:56:04;101120.75;;;7.58;40.83
74895;BME280;63447;49.446;8.666;2023-03-01T10:06:21;101115.00;;;8.53;38.13
74895;BME280;63447;49.446;8.666;2023-03-01T10:09:23;101109.84;;;7.53;40.23
74895;BME280;63447;49.446;8.666;2023-03-01T10:11:54;101085.16;;;7.71;39.03
74895;BME280;63447;49.446;8.666;2023-03-01T10:14:33;101107.81;;;8.38;38.18
74895;BME280;63447;49.446;8.666;2023-03-01T10:17:03;101100.53;;;8.47;37.93
74895;BME280;63447;49.446;8.666;2023-03-01T10:19:38;101102.31;;;9.03;37.11
74895;BME280;63447;49.446;8.666;2023-03-01T10:22:13;101088.41;;;7.73;37.84
74895;BME280;63447;49.446;8.666;2023-03-01T10:24:42;101101.47;;;7.81;38.48
74895;BME280;63447;49.446;8.666;2023-03-01T10:29:53;101074.03;;;9.66;35.71
74895;BME280;63447;49.446;8.666;2023-03-01T10:32:20;101084.88;;;9.99;35.92
74895;BME280;63447;49.446;8.666;2023-03-01T10:34:47;101080.19;;;10.35;35.52
74895;BME280;63447;49.446;8.666;2023-03-01T10:37:18;101066.19;;;10.09;33.86
74895;BME280;63447;49.446;8.666;2023-03-01T10:42:34;101060.25;;;11.31;32.88
74895;BME280;63447;49.446;8.666;2023-03-01T10:50:40;101058.78;;;10.94;33.06
74895;BME280;63447;49.446;8.666;2023-03-01T10:53:32;101046.72;;;10.81;32.75
74895;BME280;63447;49.446;8.666;2023-03-01T10:58:27;101034.41;;;10.87;32.48
74895;BME280;63447;49.446;8.666;2023-03-01T11:00:58;101034.81;;;10.72;34.58
74895;BME280;63447;49.446;8.666;2023-03-01T11:08:33;101022.31;;;11.97;32.44
74895;BME280;63447;49.446;8.666;2023-03-01T11:11:18;101009.63;;;12.05;31.07
74895;BME280;63447;49.446;8.666;2023-03-01T11:16:36;101009.31;;;11.98;32.49
74895;BME280;63447;49.446;8.666;2023-03-01T11:24:45;100999.97;;;13.80;29.04
74895;BME280;63447;49.446;8.666;2023-03-01T11:27:32;100985.47;;;13.33;29.50
74895;BME280;63447;49.446;8.666;2023-03-01T11:30:05;100989.41;;;12.94;28.24
74895;BME280;63447;49.446;8.666;2023-03-01T11:32:40;100982.78;;;14.98;26.47
74895;BME280;63447;49.446;8.666;2023-03-01T11:35:15;100958.56;;;14.29;27.57
74895;BME280;63447;49.446;8.666;2023-03-01T11:40:40;100962.81;;;16.25;25.63
74895;BME280;63447;49.446;8.666;2023-03-01T11:46:03;100960.13;;;16.88;23.98
74895;BME280;63447;49.446;8.666;2023-03-01T11:48:47;100943.34;;;16.13;25.27
74895;BME280;63447;49.446;8.666;2023-03-01T12:14:02;100914.69;;;19.59;20.67
74895;BME280;63447;49.446;8.666;2023-03-01T12:17:02;100901.78;;;18.98;21.06
74895;BME280;63447;49.446;8.666;2023-03-01T12:22:28;100890.97;;;21.12;18.92
74895;BME280;63447;49.446;8.666;2023-03-01T12:25:25;100893.06;;;20.30;18.59
74895;BME280;63447;49.446;8.666;2023-03-01T12:30:52;100880.66;;;22.35;18.19
74895;BME280;63447;49.446;8.666;2023-03-01T12:33:57;100878.03;;;23.86;15.75
74895;BME280;63447;49.446;8.666;2023-03-01T12:50:32;100850.00;;;20.42;20.00
74895;BME280;63447;49.446;8.666;2023-03-01T12:53:01;100847.47;;;16.57;23.02
74895;BME280;63447;49.446;8.666;2023-03-01T12:55:35;100834.75;;;18.30;22.46
74895;BME280;63447;49.446;8.666;2023-03-01T12:58:16;100832.59;;;20.26;19.56
74895;BME280;63447;49.446;8.666;2023-03-01T13:04:29;100837.06;;;15.11;23.83
74895;BME280;63447;49.446;8.666;2023-03-01T13:07:13;100834.88;;;17.14;22.50
74895;BME280;63447;49.446;8.666;2023-03-01T13:17:57;100808.84;;;19.72;19.88
74895;BME280;63447;49.446;8.666;2023-03-01T13:20:29;100812.50;;;21.26;17.21
74895;BME280;63447;49.446;8.666;2023-03-01T13:23:13;100814.38;;;22.02;17.17
74895;BME280;63447;49.446;8.666;2023-03-01T13:28:55;100795.25;;;23.48;15.84
74895;BME280;63447;49.446;8.666;2023-03-01T13:33:58;100791.34;;;20.74;17.98
74895;BME280;63447;49.446;8.666;2023-03-01T13:38:56;100791.03;;;21.87;17.16
74895;BME280;63447;49.446;8.666;2023-03-01T13:46:44;100794.81;;;19.05;20.15
74895;BME280;63447;49.446;8.666;2023-03-01T13:49:16;100795.13;;;19.00;20.25
74895;BME280;63447;49.446;8.666;2023-03-01T13:51:46;100791.88;;;17.35;23.04
74895;BME280;63447;49.446;8.666;2023-03-01T13:54:12;100782.78;;;20.09;19.00
74895;BME280;63447;49.446;8.666;2023-03-01T13:56:41;100776.41;;;20.59;19.32
74895;BME280;63447;49.446;8.666;2023-03-01T13:59:18;100773.38;;;23.81;15.04
74895;BME280;63447;49.446;8.666;2023-03-01T14:01:43;100772.13;;;21.66;17.04
74895;BME280;63447;49.446;8.666;2023-03-01T14:04:35;100780.09;;;23.24;15.87
74895;BME280;63447;49.446;8.666;2023-03-01T14:07:16;100778.22;;;24.77;14.43
74895;BME280;63447;49.446;8.666;2023-03-01T14:09:47;100779.88;;;19.94;19.07
74895;BME280;63447;49.446;8.666;2023-03-01T14:15:06;100769.56;;;19.31;19.69
74895;BME280;63447;49.446;8.666;2023-03-01T14:20:20;100764.00;;;23.25;15.84
74895;BME280;63447;49.446;8.666;2023-03-01T14:22:48;100766.19;;;22.46;16.64
74895;BME280;63447;49.446;8.666;2023-03-01T14:28:18;100759.28;;;18.26;20.87
74895;BME280;63447;49.446;8.666;2023-03-01T14:30:45;100755.25;;;19.70;19.67
74895;BME280;63447;49.446;8.666;2023-03-01T14:33:35;100751.06;;;21.14;18.18
74895;BME280;63447;49.446;8.666;2023-03-01T14:36:11;100753.56;;;20.50;18.38
74895;BME280;63447;49.446;8.666;2023-03-01T14:42:07;100741.94;;;20.52;17.90
74895;BME280;63447;49.446;8.666;2023-03-01T14:44:36;100707.94;;;17.43;21.65
74895;BME280;63447;49.446;8.666;2023-03-01T14:47:03;100743.38;;;19.13;19.74
74895;BME280;63447;49.446;8.666;2023-03-01T14:49:32;100766.84;;;19.05;20.84
74895;BME280;63447;49.446;8.666;2023-03-01T14:52:06;100756.50;;;20.75;18.61
74895;BME280;63447;49.446;8.666;2023-03-01T14:57:20;100759.94;;;19.29;19.82
74895;BME280;63447;49.446;8.666;2023-03-01T14:59:57;100748.59;;;18.32;20.89
74895;BME280;63447;49.446;8.666;2023-03-01T15:02:24;100753.19;;;18.70;20.92
74895;BME280;63447;49.446;8.666;2023-03-01T15:05:00;100741.31;;;16.27;23.08
74895;BME280;63447;49.446;8.666;2023-03-01T15:07:30;100760.84;;;15.24;25.05
74895;BME280;63447;49.446;8.666;2023-03-01T15:09:57;100763.03;;;16.22;23.81
74895;BME280;63447;49.446;8.666;2023-03-01T15:12:34;100764.13;;;18.07;22.21
74895;BME280;63447;49.446;8.666;2023-03-01T15:17:59;100759.47;;;20.38;18.53
74895;BME280;63447;49.446;8.666;2023-03-01T15:20:27;100775.94;;;19.62;19.42
74895;BME280;63447;49.446;8.666;2023-03-01T15:22:55;100792.22;;;19.19;20.49
74895;BME280;63447;49.446;8.666;2023-03-01T15:25:27;100758.56;;;20.85;17.94
74895;BME280;63447;49.446;8.666;2023-03-01T15:28:00;100772.38;;;20.53;17.75